FW1468 Weather Reports


Display with metric or nautical units.
time (UTC)temp
F
wind
direction
speed
MPH
gust
MPH
rain 1hr
in
rain 24hr
in
rain mn
in
humidity
%
barometer
mb
20190918030122 49 215 0.0 3.0 0.00 0.00 0.00 93 1021.6
20190918024619 49 161 0.0 0.0 0.00 0.00 0.00 92 1021.5
20190918023126 49 161 0.0 0.0 0.00 0.00 0.00 92 1021.3
20190918021552 49 162 0.0 0.0 0.00 0.00 0.00 91 1021.1
20190918020049 50 161 0.0 0.0 0.00 0.00 0.00 90 1021.0
20190918014552 50 161 0.0 0.0 0.00 0.00 0.00 89 1020.9
20190918013109 51 161 0.0 0.0 0.00 0.00 0.00 88 1020.7
20190918011543 51 161 0.0 0.0 0.00 0.00 0.00 87 1020.6
20190918010131 52 161 0.0 0.0 0.00 0.00 0.00 86 1020.3
20190918004620 53 162 0.0 0.0 0.00 0.00 0.00 84 1020.3
20190918003052 54 162 0.0 0.0 0.00 0.00 0.00 83 1020.1
20190918001534 55 160 0.0 0.0 0.00 0.00 0.00 79 1020.0
20190918000115 56 160 0.0 0.0 0.00 0.00 0.00 76 1019.9
20190917234551 57 160 0.0 0.0 0.00 0.00 0.00 72 1019.6
20190917233122 59 160 0.0 0.0 0.00 0.00 0.00 68 1019.4
20190917231622 61 160 0.0 0.0 0.00 0.00 0.00 65 1019.3
20190917230036 62 160 0.0 0.0 0.00 0.00 0.00 60 1019.1
20190917224541 64 160 0.0 0.0 0.00 0.00 0.00 60 1019.1
20190917223035 66 160 0.0 0.0 0.00 0.00 0.00 53 1019.1
20190917221539 67 181 0.0 2.0 0.00 0.00 0.00 50 1018.9
20190917220036 68 188 0.0 4.0 0.00 0.00 0.00 48 1018.9
20190917214522 69 164 0.0 2.0 0.00 0.00 0.00 47 1018.9
20190917213027 70 181 0.0 5.0 0.00 0.00 0.00 45 1018.8
20190917211545 71 143 1.0 4.0 0.00 0.00 0.00 43 1018.8
20190917204542 72 167 1.0 4.0 0.00 0.00 0.00 40 1018.8
20190917203030 72 158 1.0 7.0 0.00 0.00 0.00 40 1018.8
20190917201527 73 226 3.0 11.0 0.00 0.00 0.00 36 1018.8
20190917200055 73 313 1.0 6.0 0.00 0.00 0.00 34 1018.8
20190917194527 74 225 1.0 7.0 0.00 0.00 0.00 36 1018.8
20190917193026 73 227 1.0 6.0 0.00 0.00 0.00 36 1018.9
20190917191604 73 174 2.0 7.0 0.00 0.00 0.00 37 1019.0
20190917190056 73 75 3.0 14.0 0.00 0.00 0.00 38 1019.1
20190917184513 73 216 1.0 7.0 0.00 0.00 0.00 40 1019.3
20190917183022 73 151 2.0 10.0 0.00 0.00 0.00 39 1019.5
20190917181513 73 253 4.0 11.0 0.00 0.00 0.00 38 1019.7
20190917180015 73 272 0.0 7.0 0.00 0.00 0.00 41 1019.8
20190917174537 72 222 1.0 10.0 0.00 0.00 0.00 43 1019.9
20190917173015 73 196 3.0 10.0 0.00 0.00 0.00 45 1020.0
20190917171515 72 208 1.0 5.0 0.00 0.00 0.00 44 1020.1
20190917170003 71 139 1.0 11.0 0.00 0.00 0.00 46 1020.3
20190917164745 71 6 2.0 10.0 0.00 0.00 0.00 50 1020.4
20190917163206 70 181 0.0 8.0 0.00 0.00 0.00 52 1020.5
20190917161724 70 230 0.0 9.0 0.00 0.00 0.00 54 1020.6
20190917160137 70 182 2.0 5.0 0.00 0.00 0.00 55 1020.8
20190917154646 69 212 0.0 5.0 0.00 0.00 0.00 59 1020.7
20190917153151 68 195 0.0 4.0 0.00 0.00 0.00 59 1020.9
20190917151644 67 214 1.0 6.0 0.00 0.00 0.00 63 1021.0
20190917150137 66 214 1.0 5.0 0.00 0.00 0.00 64 1021.0
20190917144644 65 284 0.0 4.0 0.00 0.00 0.00 67 1021.1
20190917143103 64 196 0.0 4.0 0.00 0.00 0.00 71 1021.3
20190917141615 62 215 1.0 8.0 0.00 0.00 0.00 74 1021.3
20190917140046 60 202 1.0 4.0 0.00 0.00 0.00 81 1021.2
20190917133050 55 190 0.0 2.0 0.00 0.00 0.00 98 1021.3
20190917131518 54 192 0.0 0.0 0.00 0.00 0.00 98 1021.3
20190917130023 53 173 0.0 1.0 0.00 0.00 0.00 98 1021.1
20190917124526 52 173 0.0 0.0 0.00 0.00 0.00 98 1021.0
20190917123014 51 173 0.0 0.0 0.00 0.00 0.00 98 1021.0
20190917121512 52 171 0.0 0.0 0.00 0.00 0.00 98 1021.0
20190917120012 49 171 0.0 0.0 0.00 0.00 0.00 98 1021.0
20190917114547 46 171 0.0 0.0 0.00 0.00 0.00 98 1020.9
20190917113006 45 171 0.0 0.0 0.00 0.00 0.00 98 1020.8
20190917111522 45 171 0.0 0.0 0.00 0.00 0.00 97 1020.6
20190917110001 46 171 0.0 0.0 0.00 0.00 0.00 97 1020.5
20190917104723 46 171 0.0 0.0 0.00 0.00 0.00 98 1020.3
20190917103212 46 171 0.0 0.0 0.00 0.00 0.00 97 1020.2
20190917101637 46 171 0.0 0.0 0.00 0.00 0.00 97 1019.9
20190917100305 46 171 0.0 0.0 0.00 0.00 0.00 97 1019.8
20190917094711 46 171 0.0 0.0 0.00 0.00 0.00 97 1019.7
20190917093153 46 171 0.0 0.0 0.00 0.00 0.00 97 1019.4
20190917091626 47 171 0.0 0.0 0.00 0.00 0.00 97 1019.3
20190917090110 47 171 0.0 0.0 0.00 0.00 0.00 97 1019.1
20190917084636 48 171 0.0 0.0 0.00 0.00 0.00 97 1019.0
20190917083105 48 171 0.0 0.0 0.00 0.00 0.00 97 1019.0
20190917081629 49 171 0.0 0.0 0.00 0.00 0.00 97 1019.0
20190917080133 48 171 0.0 0.0 0.00 0.00 0.00 97 1019.0
20190917074600 49 170 0.0 0.0 0.00 0.00 0.00 97 1019.0
20190917071600 48 171 0.0 0.0 0.00 0.00 0.00 97 1019.0
20190917070113 49 171 0.0 0.0 0.00 0.00 0.00 97 1018.9
20190917064605 49 171 0.0 0.0 0.00 0.00 0.00 97 1018.9
20190917063036 50 171 0.0 0.0 0.00 0.00 0.00 97 1019.0
20190917061556 50 171 0.0 0.0 0.00 0.00 0.00 97 1018.9
20190917060037 50 171 0.0 0.0 0.00 0.00 0.00 97 1018.9
20190917054530 51 171 0.0 0.0 0.00 0.00 0.00 97 1019.0
20190917053030 51 171 0.0 0.0 0.00 0.00 0.00 97 1018.8
20190917051527 51 187 0.0 1.0 0.00 0.00 0.00 97 1018.6
20190917050050 51 201 0.0 0.0 0.00 0.00 0.00 97 1018.5
20190917044525 52 201 0.0 0.0 0.00 0.00 0.00 96 1018.3
20190917043048 52 201 0.0 0.0 0.00 0.00 0.00 96 1018.2
20190917041513 52 201 0.0 0.0 0.00 0.00 0.00 96 1018.2
20190917040010 53 201 0.0 0.0 0.00 0.00 0.00 96 1018.0
20190917034503 54 201 0.0 0.0 0.00 0.00 0.00 96 1018.0
20190917031701 55 201 0.0 0.0 0.00 0.00 0.00 96 1017.8